createdAt,value
2023-02-23T00:02:39.947Z,3.15
2023-02-23T00:05:43.325Z,2.88
2023-02-23T00:08:48.022Z,3.25
2023-02-23T00:11:51.664Z,3.25
2023-02-23T00:14:55.022Z,3.33
2023-02-23T00:17:59.696Z,3.00
2023-02-23T00:21:03.185Z,3.17
2023-02-23T00:24:08.246Z,3.38
2023-02-23T00:27:17.369Z,2.83
2023-02-23T00:30:21.911Z,2.78
2023-02-23T00:33:26.598Z,2.53
2023-02-23T00:36:33.351Z,3.13
2023-02-23T00:39:36.783Z,2.75
2023-02-23T00:42:40.386Z,3.03
2023-02-23T00:45:43.848Z,3.15
2023-02-23T00:48:49.263Z,2.72
2023-02-23T00:51:54.055Z,3.20
2023-02-23T00:54:57.429Z,2.35
2023-02-23T00:58:00.781Z,3.10
2023-02-23T01:01:04.557Z,2.65
2023-02-23T01:04:09.489Z,3.42
2023-02-23T01:07:13.032Z,2.50
2023-02-23T01:10:23.590Z,3.08
2023-02-23T01:13:27.941Z,3.13
2023-02-23T01:16:32.410Z,2.47
2023-02-23T01:19:37.090Z,3.50
2023-02-23T01:22:40.762Z,2.65
2023-02-23T01:25:45.325Z,3.10
2023-02-23T01:28:50.411Z,2.97
2023-02-23T01:31:54.774Z,2.85
2023-02-23T01:35:00.530Z,2.83
2023-02-23T01:38:04.642Z,3.15
2023-02-23T01:41:09.007Z,3.13
2023-02-23T01:44:27.267Z,3.00
2023-02-23T01:47:32.425Z,3.42
2023-02-23T01:50:41.695Z,2.95
2023-02-23T01:53:46.508Z,3.17
2023-02-23T01:56:57.896Z,3.22
2023-02-23T02:00:01.483Z,2.92
2023-02-23T02:03:19.718Z,2.85
2023-02-23T02:06:28.631Z,3.72
2023-02-23T02:09:37.862Z,2.78
2023-02-23T02:12:41.748Z,2.78
2023-02-23T02:15:53.725Z,2.72
2023-02-23T02:19:03.190Z,2.47
2023-02-23T02:22:25.700Z,2.92
2023-02-23T02:25:45.568Z,2.90
2023-02-23T02:29:06.132Z,2.75
2023-02-23T02:32:24.162Z,2.50
2023-02-23T02:35:38.754Z,3.08
2023-02-23T02:38:53.316Z,2.30
2023-02-23T02:42:00.660Z,2.50
2023-02-23T02:45:08.553Z,2.55
2023-02-23T02:48:18.768Z,2.38
2023-02-23T02:51:26.039Z,2.33
2023-02-23T02:54:32.958Z,2.35
2023-02-23T02:57:36.341Z,3.05
2023-02-23T03:00:57.833Z,2.22
2023-02-23T03:04:20.209Z,2.70
2023-02-23T03:07:46.237Z,2.97
2023-02-23T03:11:14.951Z,2.58
2023-02-23T03:14:41.057Z,2.55
2023-02-23T03:18:05.727Z,1.92
2023-02-23T03:21:32.023Z,2.47
2023-02-23T03:24:57.571Z,3.55
2023-02-23T03:28:23.343Z,2.22
2023-02-23T03:31:47.344Z,2.15
2023-02-23T03:35:12.828Z,2.55
2023-02-23T03:38:36.699Z,2.25
2023-02-23T03:41:59.660Z,2.88
2023-02-23T03:45:27.105Z,2.63
2023-02-23T03:48:49.223Z,2.85
2023-02-23T03:52:13.146Z,2.22
2023-02-23T03:55:36.351Z,2.20
2023-02-23T03:58:58.818Z,2.33
2023-02-23T04:02:22.069Z,2.75
2023-02-23T04:05:43.188Z,2.95
2023-02-23T04:09:04.595Z,2.85
2023-02-23T04:12:28.782Z,2.83
2023-02-23T04:15:33.641Z,2.38
2023-02-23T04:18:39.649Z,3.08
2023-02-23T04:21:43.089Z,2.92
2023-02-23T04:24:46.989Z,2.55
2023-02-23T04:27:50.384Z,2.92
2023-02-23T04:30:54.069Z,3.03
2023-02-23T04:33:58.851Z,2.90
2023-02-23T04:37:02.304Z,3.30
2023-02-23T04:40:05.941Z,3.85
2023-02-23T04:43:09.422Z,3.70
2023-02-23T04:46:12.969Z,2.95
2023-02-23T04:49:17.752Z,3.92
2023-02-23T04:52:21.224Z,4.15
2023-02-23T04:55:25.594Z,4.35
2023-02-23T04:58:29.118Z,4.32
2023-02-23T05:01:32.852Z,4.50
2023-02-23T05:04:37.552Z,4.57
2023-02-23T05:07:41.062Z,4.63
2023-02-23T05:10:44.541Z,5.68
2023-02-23T05:13:47.877Z,5.55
2023-02-23T05:16:51.226Z,5.93
2023-02-23T05:19:56.177Z,5.72
2023-02-23T05:22:59.712Z,5.55
2023-02-23T05:26:06.172Z,5.80
2023-02-23T05:29:09.621Z,6.22
2023-02-23T05:32:13.114Z,5.35
2023-02-23T05:35:17.945Z,6.57
2023-02-23T05:38:21.348Z,6.50
2023-02-23T05:41:25.195Z,6.13
2023-02-23T05:44:28.876Z,5.93
2023-02-23T05:47:33.227Z,6.07
2023-02-23T05:50:38.057Z,4.95
2023-02-23T05:53:41.364Z,5.75
2023-02-23T05:56:44.918Z,6.00
2023-02-23T05:59:48.267Z,6.13
2023-02-23T06:02:53.719Z,5.80
2023-02-23T06:05:59.542Z,6.22
2023-02-23T06:09:03.260Z,6.22
2023-02-23T06:12:06.770Z,5.80
2023-02-23T06:15:10.370Z,6.32
2023-02-23T06:18:13.681Z,6.15
2023-02-23T06:21:19.682Z,6.63
2023-02-23T06:24:23.797Z,6.07
2023-02-23T06:27:27.419Z,6.50
2023-02-23T06:30:30.857Z,6.07
2023-02-23T06:33:34.295Z,6.10
2023-02-23T06:36:39.322Z,6.47
2023-02-23T06:39:42.806Z,6.20
2023-02-23T06:42:46.249Z,6.50
2023-02-23T06:45:49.633Z,5.80
2023-02-23T06:48:57.508Z,5.70
2023-02-23T06:52:02.913Z,6.88
2023-02-23T06:55:06.884Z,7.03
2023-02-23T06:58:10.374Z,7.28
2023-02-23T07:01:13.835Z,6.53
2023-02-23T07:04:17.298Z,7.95
2023-02-23T07:07:24.794Z,6.88
2023-02-23T07:10:29.103Z,7.50
2023-02-23T07:13:32.638Z,8.02
2023-02-23T07:16:36.735Z,7.28
2023-02-23T07:19:40.260Z,8.45
2023-02-23T07:22:45.134Z,8.88
2023-02-23T07:25:49.059Z,8.43
2023-02-23T07:28:54.179Z,8.85
2023-02-23T07:32:02.245Z,8.15
2023-02-23T07:35:06.309Z,8.23
2023-02-23T07:38:11.357Z,7.78
2023-02-23T07:41:14.854Z,8.40
2023-02-23T07:44:18.175Z,8.32
2023-02-23T07:47:22.621Z,8.48
2023-02-23T07:50:26.328Z,8.45
2023-02-23T07:53:34.375Z,9.20
2023-02-23T07:56:38.485Z,9.57
2023-02-23T07:59:42.465Z,8.75
2023-02-23T08:02:49.290Z,10.30
2023-02-23T08:05:52.701Z,13.15
2023-02-23T08:08:59.269Z,11.30
2023-02-23T08:12:11.644Z,10.05
2023-02-23T08:15:15.620Z,10.02
2023-02-23T08:18:19.196Z,11.57
2023-02-23T08:21:29.708Z,10.98
2023-02-23T08:24:37.358Z,11.75
2023-02-23T08:27:44.276Z,12.05
2023-02-23T08:30:52.298Z,14.38
2023-02-23T08:34:09.420Z,12.65
2023-02-23T08:37:13.199Z,13.20
2023-02-23T08:40:18.321Z,13.57
2023-02-23T08:43:21.767Z,12.27
2023-02-23T08:46:31.174Z,13.65
2023-02-23T08:49:35.512Z,13.88
2023-02-23T08:52:38.981Z,12.60
2023-02-23T08:55:49.071Z,13.00
2023-02-23T08:59:00.319Z,12.48
2023-02-23T09:02:04.199Z,14.20
2023-02-23T09:05:08.166Z,13.23
2023-02-23T09:08:15.841Z,12.98
2023-02-23T09:11:28.761Z,14.35
2023-02-23T09:14:32.443Z,13.23
2023-02-23T09:17:45.190Z,13.40
2023-02-23T09:20:52.888Z,12.80
2023-02-23T09:24:14.553Z,12.43
2023-02-23T09:27:44.100Z,13.40
2023-02-23T09:30:49.523Z,13.13
2023-02-23T09:33:53.694Z,12.20
2023-02-23T09:37:33.624Z,11.48
2023-02-23T09:41:15.308Z,11.85
2023-02-23T09:44:51.130Z,11.25
2023-02-23T09:49:17.658Z,11.18
2023-02-23T09:52:44.667Z,11.18
2023-02-23T09:55:50.275Z,11.95
2023-02-23T09:59:22.069Z,10.25
2023-02-23T10:02:39.619Z,11.60
2023-02-23T10:05:49.758Z,10.68
2023-02-23T10:09:10.455Z,11.07
2023-02-23T10:12:22.210Z,10.27
2023-02-23T10:15:29.296Z,10.68
2023-02-23T10:19:13.797Z,10.55
2023-02-23T10:22:26.552Z,9.45
2023-02-23T10:25:33.005Z,8.82
2023-02-23T10:28:39.014Z,7.55
2023-02-23T10:32:03.201Z,8.25
2023-02-23T10:43:26.209Z,9.38
2023-02-23T10:46:33.367Z,9.10
2023-02-23T10:50:09.417Z,11.35
2023-02-23T10:53:17.764Z,13.15
2023-02-23T10:56:49.496Z,11.27
2023-02-23T11:00:27.597Z,14.15
2023-02-23T11:03:46.906Z,13.85
2023-02-23T11:07:34.088Z,12.80
2023-02-23T11:10:51.613Z,13.75
2023-02-23T11:13:55.277Z,13.57
2023-02-23T11:17:27.636Z,13.13
2023-02-23T11:20:35.876Z,13.63
2023-02-23T11:23:43.262Z,16.17
2023-02-23T11:26:47.600Z,14.98
2023-02-23T11:29:56.460Z,14.65
2023-02-23T11:33:11.061Z,15.75
2023-02-23T11:36:18.099Z,15.88
2023-02-23T11:39:23.413Z,15.85
2023-02-23T11:42:27.669Z,16.00
2023-02-23T11:46:00.474Z,16.42
2023-02-23T11:49:11.444Z,16.38
2023-02-23T11:52:18.615Z,17.25
2023-02-23T11:55:25.853Z,17.10
2023-02-23T11:58:36.656Z,16.90
2023-02-23T12:01:46.916Z,17.67
2023-02-23T12:05:06.521Z,18.83
2023-02-23T12:08:27.477Z,16.02
2023-02-23T12:16:23.452Z,18.25
2023-02-23T12:19:31.613Z,18.38
2023-02-23T12:22:47.822Z,16.35
2023-02-23T12:25:59.582Z,17.35
2023-02-23T12:29:06.389Z,15.52
2023-02-23T12:32:36.905Z,16.50
2023-02-23T12:36:29.243Z,16.23
2023-02-23T12:39:50.036Z,17.88
2023-02-23T12:43:19.224Z,16.23
2023-02-23T12:46:34.278Z,16.02
2023-02-23T12:49:39.726Z,15.73
2023-02-23T12:52:49.535Z,16.80
2023-02-23T12:56:48.906Z,16.38
2023-02-23T13:00:24.681Z,16.13
2023-02-23T13:03:51.565Z,17.77
2023-02-23T13:06:59.671Z,17.73
2023-02-23T13:10:07.677Z,16.38
2023-02-23T13:13:18.972Z,15.50
2023-02-23T13:16:25.640Z,16.23
2023-02-23T13:19:34.127Z,16.58
2023-02-23T13:22:48.094Z,16.17
2023-02-23T13:25:56.874Z,13.57
2023-02-23T13:29:03.834Z,16.35
2023-02-23T13:32:13.799Z,17.33
2023-02-23T13:35:18.913Z,14.60
2023-02-23T13:38:29.901Z,15.05
2023-02-23T13:41:46.419Z,15.02
2023-02-23T13:44:56.890Z,19.02
2023-02-23T13:48:05.605Z,16.02
2023-02-23T13:51:21.832Z,15.98
2023-02-23T13:54:29.519Z,15.90
2023-02-23T14:01:08.404Z,17.95
2023-02-23T14:04:15.695Z,15.25
2023-02-23T14:07:25.547Z,15.93
2023-02-23T14:14:49.131Z,14.88
2023-02-23T14:22:15.616Z,14.23
2023-02-23T14:25:37.698Z,13.95
2023-02-23T14:28:42.103Z,14.75
2023-02-23T14:31:56.473Z,14.27
2023-02-23T14:35:29.227Z,12.48
2023-02-23T14:38:48.531Z,11.63
2023-02-23T14:41:52.792Z,11.80
2023-02-23T14:44:56.793Z,13.98
2023-02-23T14:48:11.610Z,12.10
2023-02-23T14:51:24.078Z,11.93
2023-02-23T14:54:38.083Z,10.70
2023-02-23T14:57:45.593Z,12.90
2023-02-23T15:00:51.985Z,10.95
2023-02-23T15:04:08.058Z,11.43
2023-02-23T15:07:18.501Z,11.30
2023-02-23T15:10:24.353Z,12.18
2023-02-23T15:13:33.191Z,11.75
2023-02-23T15:16:42.716Z,10.20
2023-02-23T15:19:48.521Z,10.32
2023-02-23T15:22:55.126Z,10.68
2023-02-23T15:25:58.609Z,10.80
2023-02-23T15:29:09.116Z,12.20
2023-02-23T15:32:15.733Z,9.65
2023-02-23T15:35:20.630Z,9.32
2023-02-23T15:38:42.208Z,9.85
2023-02-23T15:41:48.363Z,8.63
2023-02-23T15:44:56.747Z,9.95
2023-02-23T15:48:01.719Z,9.00
2023-02-23T15:51:07.463Z,8.85
2023-02-23T15:54:15.530Z,8.13
2023-02-23T15:57:22.723Z,8.35
2023-02-23T16:00:32.961Z,8.05
2023-02-23T16:03:37.788Z,8.15
2023-02-23T16:06:50.650Z,6.78
2023-02-23T16:09:54.893Z,7.32
2023-02-23T16:12:58.506Z,5.97
2023-02-23T16:16:02.170Z,6.55
2023-02-23T16:19:05.689Z,5.93
2023-02-23T16:22:16.343Z,6.60
2023-02-23T16:25:20.343Z,6.63
2023-02-23T16:28:24.476Z,5.88
2023-02-23T16:31:43.354Z,5.45
2023-02-23T16:34:50.842Z,5.40
2023-02-23T16:38:00.159Z,5.78
2023-02-23T16:41:04.207Z,6.15
2023-02-23T16:44:08.586Z,5.72
2023-02-23T16:47:14.156Z,5.25
2023-02-23T16:50:21.145Z,5.53
2023-02-23T16:53:26.322Z,6.63
2023-02-23T16:56:30.559Z,5.50
2023-02-23T16:59:35.126Z,5.40
2023-02-23T17:02:38.517Z,7.10
2023-02-23T17:05:42.519Z,5.10
2023-02-23T17:08:57.274Z,6.32
2023-02-23T17:12:01.523Z,5.57
2023-02-23T17:15:05.193Z,6.50
2023-02-23T17:18:08.852Z,5.45
2023-02-23T17:21:14.062Z,6.32
2023-02-23T17:24:19.095Z,5.80
2023-02-23T17:27:22.472Z,7.00
2023-02-23T17:30:26.380Z,7.00
2023-02-23T17:33:33.570Z,3.47
2023-02-23T17:36:37.036Z,4.38
2023-02-23T17:39:41.780Z,4.50
2023-02-23T17:42:45.358Z,3.95
2023-02-23T17:45:49.870Z,3.35
2023-02-23T17:48:55.180Z,3.00
2023-02-23T17:51:59.918Z,1.88
2023-02-23T17:55:04.906Z,1.90
2023-02-23T17:58:08.438Z,2.08
2023-02-23T18:01:16.279Z,2.25
2023-02-23T18:04:19.954Z,1.55
2023-02-23T18:07:23.961Z,1.77
2023-02-23T18:10:36.973Z,1.50
2023-02-23T18:13:41.072Z,1.65
2023-02-23T18:16:44.559Z,1.65
2023-02-23T18:19:48.204Z,1.75
2023-02-23T18:22:54.230Z,1.50
2023-02-23T18:26:05.266Z,1.60
2023-02-23T18:29:09.247Z,1.40
2023-02-23T18:32:12.967Z,1.83
2023-02-23T18:35:16.882Z,1.90
2023-02-23T18:38:21.204Z,2.25
2023-02-23T18:41:30.706Z,1.73
2023-02-23T18:44:35.331Z,1.80
2023-02-23T18:47:38.949Z,1.80
2023-02-23T18:50:50.011Z,1.25
2023-02-23T18:53:54.246Z,1.98
2023-02-23T18:56:59.323Z,1.75
2023-02-23T19:00:04.752Z,1.50
2023-02-23T19:03:10.004Z,2.10
2023-02-23T19:06:15.794Z,1.65
2023-02-23T19:09:23.324Z,1.98
2023-02-23T19:12:28.153Z,1.63
2023-02-23T19:15:31.867Z,1.40
2023-02-23T19:18:35.653Z,1.58
2023-02-23T19:21:39.495Z,2.15
2023-02-23T19:24:48.873Z,2.20
2023-02-23T19:27:53.896Z,1.63
2023-02-23T19:31:05.795Z,1.15
2023-02-23T19:34:09.562Z,1.45
2023-02-23T19:37:13.134Z,1.75
2023-02-23T19:40:19.617Z,1.60
2023-02-23T19:43:24.572Z,1.27
2023-02-23T19:46:28.303Z,1.67
2023-02-23T19:49:31.812Z,1.27
2023-02-23T19:52:45.268Z,1.30
2023-02-23T19:55:49.620Z,1.17
2023-02-23T19:58:54.529Z,1.85
2023-02-23T20:01:58.368Z,1.38
2023-02-23T20:05:02.086Z,1.77
2023-02-23T20:08:06.530Z,1.42
2023-02-23T20:11:10.606Z,1.50
2023-02-23T20:14:15.781Z,1.02
2023-02-23T20:17:19.251Z,1.55
2023-02-23T20:20:25.477Z,1.35
2023-02-23T20:23:29.112Z,0.93
2023-02-23T20:26:35.835Z,1.00
2023-02-23T20:29:45.325Z,1.05
2023-02-23T20:32:49.051Z,1.50
2023-02-23T20:36:05.937Z,1.25
2023-02-23T20:39:11.162Z,1.52
2023-02-23T20:42:15.378Z,1.35
2023-02-23T20:45:21.726Z,1.20
2023-02-23T20:48:26.995Z,1.75
2023-02-23T20:51:31.024Z,2.08
2023-02-23T20:54:34.472Z,0.95
2023-02-23T20:57:38.205Z,1.38
2023-02-23T21:00:43.107Z,1.70
2023-02-23T21:03:47.524Z,1.10
2023-02-23T21:06:51.022Z,1.08
2023-02-23T21:09:54.997Z,1.20
2023-02-23T21:12:58.652Z,1.20
2023-02-23T21:16:03.601Z,1.92
2023-02-23T21:19:07.726Z,1.67
2023-02-23T21:22:21.335Z,1.50
2023-02-23T21:25:25.813Z,1.30
2023-02-23T21:28:29.216Z,1.15
2023-02-23T21:31:34.083Z,1.85
2023-02-23T21:34:40.334Z,1.33
2023-02-23T21:37:44.073Z,1.95
2023-02-23T21:40:53.927Z,1.45
2023-02-23T21:43:57.544Z,1.33
2023-02-23T21:47:05.072Z,1.02
2023-02-23T21:50:15.404Z,1.77
2023-02-23T21:53:19.801Z,1.15
2023-02-23T21:56:24.323Z,1.27
2023-02-23T21:59:28.170Z,1.30
2023-02-23T22:02:33.648Z,1.15
2023-02-23T22:05:37.390Z,1.25
2023-02-23T22:08:42.951Z,1.38
2023-02-23T22:11:47.229Z,1.25
2023-02-23T22:14:50.719Z,1.45
2023-02-23T22:18:00.034Z,1.70
2023-02-23T22:21:06.436Z,1.05
2023-02-23T22:24:10.754Z,1.33
2023-02-23T22:27:15.829Z,1.40
2023-02-23T22:30:22.846Z,1.48
2023-02-23T22:33:27.943Z,1.42
2023-02-23T22:36:33.858Z,1.17
2023-02-23T22:39:41.586Z,0.98
2023-02-23T22:42:47.941Z,1.70
2023-02-23T22:45:56.890Z,1.25
2023-02-23T22:49:01.599Z,0.80
2023-02-23T22:52:05.760Z,1.30
2023-02-23T22:55:10.686Z,1.10
2023-02-23T22:58:16.827Z,1.10
2023-02-23T23:01:20.689Z,1.02
2023-02-23T23:04:26.816Z,0.70
2023-02-23T23:07:31.126Z,1.48
2023-02-23T23:10:34.562Z,1.30
2023-02-23T23:13:43.130Z,0.93
2023-02-23T23:16:49.521Z,1.02
2023-02-23T23:19:55.775Z,1.52
2023-02-23T23:23:02.619Z,0.95
2023-02-23T23:26:07.392Z,0.80
2023-02-23T23:29:26.477Z,0.90
2023-02-23T23:32:30.438Z,1.20
2023-02-23T23:35:35.667Z,0.70
2023-02-23T23:38:39.134Z,0.70
2023-02-23T23:41:43.081Z,0.95
2023-02-23T23:44:46.839Z,0.93
2023-02-23T23:47:50.252Z,0.50
2023-02-23T23:50:58.544Z,0.93
2023-02-23T23:54:06.448Z,0.68
2023-02-23T23:57:11.700Z,0.50
